createdAt,value
2022-08-25T00:00:02.353Z,3.05
2022-08-25T00:02:06.546Z,3.20
2022-08-25T00:04:10.899Z,3.42
2022-08-25T00:06:12.277Z,3.53
2022-08-25T00:08:13.591Z,3.20
2022-08-25T00:10:14.875Z,3.40
2022-08-25T00:12:16.246Z,3.15
2022-08-25T00:14:19.242Z,3.53
2022-08-25T00:16:21.589Z,3.45
2022-08-25T00:18:22.954Z,3.50
2022-08-25T00:20:25.338Z,3.10
2022-08-25T00:22:26.627Z,3.05
2022-08-25T00:24:28.584Z,3.45
2022-08-25T00:26:30.622Z,3.30
2022-08-25T00:28:32.325Z,3.30
2022-08-25T00:30:33.639Z,3.20
2022-08-25T00:32:34.974Z,3.38
2022-08-25T00:34:37.826Z,3.33
2022-08-25T00:36:39.239Z,3.28
2022-08-25T00:38:41.338Z,3.35
2022-08-25T00:40:42.766Z,3.17
2022-08-25T00:42:44.204Z,3.53
2022-08-25T00:44:45.542Z,3.40
2022-08-25T00:46:48.618Z,3.53
2022-08-25T00:48:58.026Z,3.30
2022-08-25T00:51:00.383Z,3.40
2022-08-25T00:53:03.361Z,3.10
2022-08-25T00:55:11.290Z,3.30
2022-08-25T00:57:14.752Z,3.47
2022-08-25T00:59:18.577Z,3.30
2022-08-25T01:01:20.074Z,3.40
2022-08-25T01:03:23.933Z,3.03
2022-08-25T01:05:33.179Z,3.55
2022-08-25T01:07:34.838Z,3.80
2022-08-25T01:09:36.165Z,3.60
2022-08-25T01:11:37.598Z,3.47
2022-08-25T01:13:41.047Z,3.35
2022-08-25T01:15:42.629Z,3.40
2022-08-25T01:17:54.885Z,3.55
2022-08-25T01:19:56.239Z,3.20
2022-08-25T01:21:58.018Z,3.67
2022-08-25T01:23:59.935Z,3.70
2022-08-25T01:26:01.208Z,3.35
2022-08-25T01:28:02.778Z,3.35
2022-08-25T01:30:04.408Z,3.20
2022-08-25T01:32:08.531Z,3.83
2022-08-25T01:34:12.239Z,3.13
2022-08-25T01:36:17.946Z,3.65
2022-08-25T01:38:23.083Z,3.40
2022-08-25T01:40:24.576Z,3.00
2022-08-25T01:42:44.340Z,3.28
2022-08-25T01:44:46.474Z,3.30
2022-08-25T01:46:47.902Z,3.90
2022-08-25T01:48:49.331Z,3.40
2022-08-25T01:50:50.754Z,3.50
2022-08-25T01:53:09.151Z,3.63
2022-08-25T01:55:10.509Z,3.67
2022-08-25T01:57:11.956Z,3.70
2022-08-25T01:59:15.537Z,3.65
2022-08-25T02:01:26.237Z,3.53
2022-08-25T02:03:27.840Z,3.70
2022-08-25T02:05:29.406Z,3.80
2022-08-25T02:07:34.405Z,3.60
2022-08-25T02:09:36.602Z,3.60
2022-08-25T02:11:39.483Z,3.15
2022-08-25T02:13:41.925Z,3.67
2022-08-25T02:15:44.464Z,3.47
2022-08-25T02:17:45.893Z,3.72
2022-08-25T02:19:47.170Z,4.13
2022-08-25T02:21:48.453Z,3.47
2022-08-25T02:23:50.158Z,3.80
2022-08-25T02:25:51.487Z,3.60
2022-08-25T02:27:52.779Z,3.88
2022-08-25T02:29:54.085Z,3.35
2022-08-25T02:31:55.407Z,3.95
2022-08-25T02:33:57.221Z,3.75
2022-08-25T02:35:59.580Z,3.80
2022-08-25T02:38:01.004Z,3.55
2022-08-25T02:40:03.194Z,3.70
2022-08-25T02:42:04.685Z,3.75
2022-08-25T02:44:06.951Z,3.72
2022-08-25T02:46:09.020Z,3.92
2022-08-25T02:48:11.316Z,4.03
2022-08-25T02:50:13.139Z,3.80
2022-08-25T02:52:15.052Z,4.13
2022-08-25T02:54:16.380Z,3.95
2022-08-25T02:56:18.461Z,4.03
2022-08-25T02:58:19.962Z,4.00
2022-08-25T03:00:21.401Z,4.13
2022-08-25T03:02:25.173Z,4.07
2022-08-25T03:04:27.293Z,4.00
2022-08-25T03:06:28.959Z,3.92
2022-08-25T03:08:30.285Z,3.80
2022-08-25T03:10:31.853Z,3.75
2022-08-25T03:12:33.503Z,3.78
2022-08-25T03:14:35.034Z,3.90
2022-08-25T03:16:40.036Z,3.47
2022-08-25T03:18:42.023Z,3.35
2022-08-25T03:20:44.462Z,3.90
2022-08-25T03:22:45.762Z,3.75
2022-08-25T03:24:47.151Z,4.10
2022-08-25T03:26:55.676Z,4.00
2022-08-25T03:28:57.066Z,4.00
2022-08-25T03:31:00.178Z,3.80
2022-08-25T03:33:01.496Z,4.53
2022-08-25T03:35:03.036Z,4.10
2022-08-25T03:37:05.530Z,4.00
2022-08-25T03:39:08.362Z,3.80
2022-08-25T03:41:17.006Z,4.30
2022-08-25T03:43:18.792Z,3.47
2022-08-25T03:45:20.136Z,3.75
2022-08-25T03:47:21.675Z,3.75
2022-08-25T03:49:23.868Z,3.63
2022-08-25T03:51:29.447Z,4.13
2022-08-25T03:53:30.754Z,3.90
2022-08-25T03:55:32.630Z,3.60
2022-08-25T03:57:34.118Z,3.50
2022-08-25T03:59:38.251Z,4.30
2022-08-25T04:01:40.807Z,4.25
2022-08-25T04:03:42.176Z,4.13
2022-08-25T04:05:43.669Z,4.18
2022-08-25T04:07:44.980Z,3.90
2022-08-25T04:09:46.297Z,3.65
2022-08-25T04:11:47.701Z,4.10
2022-08-25T04:13:56.136Z,3.85
2022-08-25T04:15:57.421Z,4.15
2022-08-25T04:18:03.243Z,3.80
2022-08-25T04:20:05.573Z,3.85
2022-08-25T04:22:06.918Z,4.00
2022-08-25T04:24:09.673Z,4.50
2022-08-25T04:26:12.538Z,4.38
2022-08-25T04:28:14.233Z,4.07
2022-08-25T04:30:16.614Z,4.97
2022-08-25T04:32:18.111Z,4.90
2022-08-25T04:34:30.147Z,4.00
2022-08-25T04:36:32.705Z,4.28
2022-08-25T04:38:34.169Z,4.13
2022-08-25T04:40:35.490Z,4.18
2022-08-25T04:42:36.971Z,4.40
2022-08-25T04:44:38.275Z,4.13
2022-08-25T04:46:39.637Z,4.35
2022-08-25T04:48:41.022Z,4.75
2022-08-25T04:50:42.396Z,4.25
2022-08-25T04:52:43.870Z,4.10
2022-08-25T04:54:45.355Z,4.78
2022-08-25T04:56:47.047Z,4.85
2022-08-25T04:58:48.359Z,4.63
2022-08-25T05:00:49.706Z,4.15
2022-08-25T05:02:51.075Z,4.40
2022-08-25T05:04:52.480Z,4.72
2022-08-25T05:06:53.824Z,4.30
2022-08-25T05:08:56.025Z,4.40
2022-08-25T05:10:57.618Z,4.60
2022-08-25T05:12:59.830Z,4.32
2022-08-25T05:15:21.471Z,4.30
2022-08-25T05:17:22.841Z,4.80
2022-08-25T05:19:24.672Z,4.28
2022-08-25T05:21:27.047Z,4.45
2022-08-25T05:23:28.457Z,4.45
2022-08-25T05:25:30.004Z,4.97
2022-08-25T05:27:33.556Z,4.55
2022-08-25T05:29:34.850Z,4.47
2022-08-25T05:31:41.752Z,5.10
2022-08-25T05:33:44.651Z,5.30
2022-08-25T05:35:46.033Z,4.75
2022-08-25T05:37:47.387Z,4.50
2022-08-25T05:39:48.728Z,4.93
2022-08-25T05:41:50.218Z,5.35
2022-08-25T05:43:51.831Z,5.32
2022-08-25T05:45:54.567Z,5.20
2022-08-25T05:47:55.951Z,4.75
2022-08-25T05:49:57.298Z,5.10
2022-08-25T05:52:00.366Z,4.93
2022-08-25T05:54:01.763Z,5.00
2022-08-25T05:56:03.247Z,5.30
2022-08-25T05:58:04.725Z,4.60
2022-08-25T06:00:07.112Z,4.32
2022-08-25T06:02:26.751Z,4.70
2022-08-25T06:04:28.125Z,5.15
2022-08-25T06:06:29.444Z,4.65
2022-08-25T06:08:33.604Z,4.28
2022-08-25T06:10:35.132Z,4.30
2022-08-25T06:12:36.400Z,4.30
2022-08-25T06:14:37.803Z,4.18
2022-08-25T06:16:39.611Z,4.20
2022-08-25T06:18:41.005Z,4.47
2022-08-25T06:20:42.369Z,4.22
2022-08-25T06:22:44.006Z,4.43
2022-08-25T06:24:45.319Z,4.35
2022-08-25T06:26:46.668Z,3.88
2022-08-25T06:28:48.871Z,4.13
2022-08-25T06:30:50.189Z,4.10
2022-08-25T06:32:52.319Z,4.50
2022-08-25T06:34:54.068Z,3.80
2022-08-25T06:36:55.385Z,3.80
2022-08-25T06:38:56.691Z,4.30
2022-08-25T06:40:58.044Z,3.88
2022-08-25T06:42:59.534Z,4.55
2022-08-25T06:45:01.533Z,4.22
2022-08-25T06:47:02.919Z,4.43
2022-08-25T06:49:05.163Z,3.90
2022-08-25T06:51:14.011Z,4.28
2022-08-25T06:53:15.658Z,4.53
2022-08-25T06:55:17.119Z,4.47
2022-08-25T06:57:18.585Z,4.50
2022-08-25T06:59:19.909Z,3.95
2022-08-25T07:01:23.623Z,3.33
2022-08-25T07:03:27.387Z,3.40
2022-08-25T07:05:40.797Z,3.63
2022-08-25T07:07:46.340Z,3.75
2022-08-25T07:09:47.664Z,3.50
2022-08-25T07:11:48.996Z,3.63
2022-08-25T07:13:51.013Z,3.45
2022-08-25T07:15:55.694Z,4.32
2022-08-25T07:17:57.400Z,3.47
2022-08-25T07:19:58.733Z,3.67
2022-08-25T07:22:00.143Z,3.50
2022-08-25T07:24:05.255Z,3.50
2022-08-25T07:28:38.900Z,3.38
2022-08-25T07:30:51.875Z,2.80
2022-08-25T07:32:55.244Z,3.17
2022-08-25T07:35:15.365Z,2.83
2022-08-25T07:37:32.321Z,2.75
2022-08-25T07:39:41.130Z,3.35
2022-08-25T07:41:43.021Z,3.40
2022-08-25T07:43:44.652Z,3.50
2022-08-25T07:45:49.138Z,3.35
2022-08-25T07:47:53.706Z,3.20
2022-08-25T07:49:55.052Z,4.55
2022-08-25T07:52:04.717Z,3.20
2022-08-25T07:54:08.067Z,2.97
2022-08-25T07:56:13.635Z,2.80
2022-08-25T07:58:15.631Z,3.63
2022-08-25T08:00:17.033Z,2.80
2022-08-25T08:02:19.507Z,3.20
2022-08-25T08:04:20.923Z,3.00
2022-08-25T08:06:22.987Z,2.97
2022-08-25T08:08:24.302Z,3.03
2022-08-25T08:11:00.638Z,3.35
2022-08-25T08:12:47.796Z,2.92
2022-08-25T08:14:53.411Z,2.80
2022-08-25T08:16:55.071Z,3.42
2022-08-25T08:18:57.235Z,3.50
2022-08-25T08:20:58.619Z,3.40
2022-08-25T08:22:59.982Z,3.15
2022-08-25T08:25:01.728Z,3.22
2022-08-25T08:27:03.416Z,3.60
2022-08-25T08:29:04.849Z,3.40
2022-08-25T08:31:06.611Z,3.20
2022-08-25T08:33:12.927Z,3.63
2022-08-25T08:35:16.632Z,3.40
2022-08-25T08:37:18.348Z,3.13
2022-08-25T08:39:21.782Z,3.22
2022-08-25T08:44:26.129Z,3.17
2022-08-25T08:46:36.523Z,3.58
2022-08-25T08:50:57.315Z,3.30
2022-08-25T08:53:10.675Z,3.00
2022-08-25T08:55:18.098Z,2.80
2022-08-25T08:57:22.529Z,3.72
2022-08-25T08:59:30.332Z,3.42
2022-08-25T09:01:56.472Z,3.05
2022-08-25T09:04:13.242Z,3.30
2022-08-25T09:06:22.385Z,3.50
2022-08-25T09:08:23.846Z,3.40
2022-08-25T09:10:32.283Z,3.35
2022-08-25T09:12:34.646Z,3.47
2022-08-25T09:14:42.995Z,3.53
2022-08-25T09:16:56.986Z,3.30
2022-08-25T09:19:04.215Z,3.15
2022-08-25T09:21:26.555Z,3.70
2022-08-25T09:23:37.627Z,3.38
2022-08-25T09:25:52.923Z,3.83
2022-08-25T09:28:06.225Z,3.83
2022-08-25T09:30:10.149Z,3.60
2022-08-25T09:32:11.671Z,3.50
2022-08-25T09:34:22.026Z,3.58
2022-08-25T09:36:24.259Z,3.78
2022-08-25T09:38:26.873Z,3.60
2022-08-25T09:40:30.192Z,3.63
2022-08-25T09:42:49.719Z,3.50
2022-08-25T09:44:51.911Z,3.50
2022-08-25T09:46:57.033Z,3.20
2022-08-25T09:49:10.998Z,3.78
2022-08-25T09:51:12.670Z,3.20
2022-08-25T09:53:19.011Z,3.42
2022-08-25T09:55:29.448Z,3.40
2022-08-25T09:57:36.076Z,3.35
2022-08-25T09:59:38.071Z,3.65
2022-08-25T10:01:47.810Z,3.50
2022-08-25T10:03:59.986Z,3.50
2022-08-25T10:06:04.104Z,3.40
2022-08-25T10:08:11.432Z,3.30
2022-08-25T10:10:18.851Z,4.53
2022-08-25T10:12:24.988Z,6.25
2022-08-25T10:14:29.473Z,3.88
2022-08-25T10:16:35.811Z,3.22
2022-08-25T10:18:37.850Z,3.50
2022-08-25T10:20:44.412Z,3.70
2022-08-25T10:22:48.315Z,3.22
2022-08-25T10:24:52.539Z,3.60
2022-08-25T10:27:12.330Z,3.53
2022-08-25T10:29:25.535Z,3.45
2022-08-25T10:31:36.242Z,3.35
2022-08-25T10:33:51.209Z,3.20
2022-08-25T10:35:52.639Z,3.05
2022-08-25T10:38:08.949Z,3.60
2022-08-25T10:40:16.709Z,3.50
2022-08-25T10:42:50.687Z,3.78
2022-08-25T10:45:13.528Z,3.40
2022-08-25T10:47:23.767Z,3.28
2022-08-25T10:49:31.970Z,3.50
2022-08-25T10:51:43.499Z,3.35
2022-08-25T10:53:51.020Z,3.28
2022-08-25T10:55:55.425Z,3.40
2022-08-25T10:58:08.648Z,3.50
2022-08-25T11:00:22.650Z,3.28
2022-08-25T11:02:45.068Z,3.47
2022-08-25T11:04:56.110Z,3.20
2022-08-25T11:07:00.453Z,3.33
2022-08-25T11:09:05.333Z,3.47
2022-08-25T11:11:10.777Z,3.50
2022-08-25T11:13:20.690Z,3.40
2022-08-25T11:15:35.862Z,3.90
2022-08-25T11:17:37.172Z,3.08
2022-08-25T11:19:41.557Z,3.50
2022-08-25T11:21:45.544Z,3.00
2022-08-25T11:23:57.349Z,3.13
2022-08-25T11:26:08.999Z,3.00
2022-08-25T11:28:20.491Z,3.63
2022-08-25T11:30:24.243Z,3.30
2022-08-25T11:32:27.510Z,3.53
2022-08-25T11:34:35.157Z,3.25
2022-08-25T11:36:40.443Z,2.90
2022-08-25T11:41:23.832Z,3.40
2022-08-25T11:43:31.444Z,3.40
2022-08-25T11:45:43.506Z,3.15
2022-08-25T11:47:47.075Z,4.30
2022-08-25T11:49:58.377Z,3.40
2022-08-25T11:52:02.888Z,3.13
2022-08-25T11:54:25.150Z,3.30
2022-08-25T11:56:34.123Z,3.03
2022-08-25T11:58:40.758Z,3.33
2022-08-25T12:00:43.502Z,3.15
2022-08-25T12:02:46.344Z,3.03
2022-08-25T12:04:48.197Z,3.20
2022-08-25T12:07:07.011Z,3.10
2022-08-25T12:09:13.159Z,3.03
2022-08-25T12:11:34.424Z,3.78
2022-08-25T12:13:47.370Z,2.97
2022-08-25T12:15:48.682Z,3.03
2022-08-25T12:18:23.664Z,3.38
2022-08-25T12:20:46.350Z,3.17
2022-08-25T12:22:55.067Z,3.00
2022-08-25T12:25:03.577Z,3.05
2022-08-25T12:27:08.446Z,3.20
2022-08-25T12:29:09.746Z,2.80
2022-08-25T12:31:18.935Z,3.20
2022-08-25T12:33:29.729Z,3.10
2022-08-25T12:35:49.673Z,3.20
2022-08-25T12:38:00.306Z,3.30
2022-08-25T12:40:03.476Z,2.90
2022-08-25T12:42:06.722Z,2.60
2022-08-25T12:44:34.771Z,2.70
2022-08-25T12:46:37.815Z,2.95
2022-08-25T12:48:52.839Z,3.10
2022-08-25T12:51:08.365Z,3.13
2022-08-25T12:53:15.582Z,3.20
2022-08-25T12:55:17.950Z,3.50
2022-08-25T12:57:38.043Z,3.05
2022-08-25T12:59:48.631Z,3.10
2022-08-25T13:02:03.123Z,2.92
2022-08-25T13:04:09.376Z,3.20
2022-08-25T13:06:13.818Z,3.28
2022-08-25T13:08:22.699Z,3.17
2022-08-25T13:10:46.973Z,2.80
2022-08-25T13:13:04.660Z,2.95
2022-08-25T13:15:06.175Z,2.80
2022-08-25T13:17:09.549Z,3.03
2022-08-25T13:19:18.153Z,2.95
2022-08-25T13:21:24.137Z,3.08
2022-08-25T13:23:29.534Z,2.90
2022-08-25T13:25:33.225Z,3.08
2022-08-25T13:27:36.588Z,3.15
2022-08-25T13:29:49.967Z,3.08
2022-08-25T13:32:01.032Z,3.00
2022-08-25T13:34:05.431Z,2.80
2022-08-25T13:36:25.507Z,2.97
2022-08-25T13:38:27.499Z,2.78
2022-08-25T13:40:34.350Z,2.67
2022-08-25T13:42:36.552Z,3.13
2022-08-25T13:44:38.958Z,2.83
2022-08-25T13:46:40.424Z,2.92
2022-08-25T13:48:49.869Z,3.00
2022-08-25T13:50:51.869Z,2.83
2022-08-25T13:52:53.840Z,2.85
2022-08-25T13:55:01.223Z,3.05
2022-08-25T13:57:25.599Z,3.60
2022-08-25T13:59:40.278Z,3.20
2022-08-25T14:01:49.520Z,3.03
2022-08-25T14:03:55.052Z,2.83
2022-08-25T14:06:05.391Z,2.88
2022-08-25T14:08:16.148Z,2.92
2022-08-25T14:10:45.083Z,2.75
2022-08-25T14:14:57.455Z,3.85
2022-08-25T14:17:12.051Z,3.00
2022-08-25T14:19:23.296Z,3.25
2022-08-25T14:21:26.375Z,2.90
2022-08-25T14:23:29.695Z,3.20
2022-08-25T14:25:31.556Z,3.92
2022-08-25T14:27:38.729Z,3.20
2022-08-25T14:29:43.318Z,3.20
2022-08-25T14:31:46.195Z,3.03
2022-08-25T14:33:52.751Z,4.03
2022-08-25T14:35:54.929Z,3.33
2022-08-25T14:37:56.609Z,5.20
2022-08-25T14:39:58.328Z,2.90
2022-08-25T14:41:59.688Z,4.10
2022-08-25T14:44:01.421Z,3.90
2022-08-25T14:46:06.943Z,3.22
2022-08-25T14:48:10.866Z,3.47
2022-08-25T14:50:13.117Z,3.28
2022-08-25T14:52:26.898Z,3.17
2022-08-25T14:54:28.263Z,3.50
2022-08-25T14:56:31.507Z,3.10
2022-08-25T14:58:34.174Z,3.28
2022-08-25T15:00:42.436Z,4.28
2022-08-25T15:02:46.688Z,3.50
2022-08-25T15:04:53.174Z,3.80
2022-08-25T15:06:56.808Z,3.40
2022-08-25T15:09:10.746Z,3.65
2022-08-25T15:11:13.281Z,3.08
2022-08-25T15:13:14.995Z,3.08
2022-08-25T15:15:16.458Z,3.22
2022-08-25T15:17:19.234Z,3.50
2022-08-25T15:19:22.627Z,3.40
2022-08-25T15:21:24.751Z,3.20
2022-08-25T15:23:33.568Z,3.45
2022-08-25T15:25:37.043Z,2.95
2022-08-25T15:27:38.429Z,2.95
2022-08-25T15:29:40.817Z,3.58
2022-08-25T15:31:42.418Z,3.30
2022-08-25T15:33:44.021Z,3.33
2022-08-25T15:35:46.165Z,3.28
2022-08-25T15:37:48.196Z,3.38
2022-08-25T15:39:49.595Z,3.22
2022-08-25T15:41:54.070Z,3.30
2022-08-25T15:43:56.612Z,3.30
2022-08-25T15:45:58.088Z,3.00
2022-08-25T15:47:59.518Z,3.00
2022-08-25T15:50:06.287Z,3.05
2022-08-25T15:52:08.580Z,3.30
2022-08-25T15:54:09.894Z,2.78
2022-08-25T15:56:14.189Z,2.90
2022-08-25T15:58:16.201Z,3.60
2022-08-25T16:00:18.079Z,3.10
2022-08-25T16:02:19.646Z,3.20
2022-08-25T16:04:22.123Z,3.20
2022-08-25T16:06:25.712Z,3.13
2022-08-25T16:08:27.635Z,3.25
2022-08-25T16:10:32.544Z,3.00
2022-08-25T16:12:33.901Z,3.10
2022-08-25T16:14:35.451Z,3.25
2022-08-25T16:16:36.901Z,3.20
2022-08-25T16:18:38.268Z,3.53
2022-08-25T16:20:43.324Z,2.80
2022-08-25T16:22:44.797Z,2.90
2022-08-25T16:24:46.447Z,3.28
2022-08-25T16:26:48.471Z,3.70
2022-08-25T16:28:50.646Z,3.10
2022-08-25T16:30:52.750Z,3.22
2022-08-25T16:32:54.425Z,3.20
2022-08-25T16:34:55.898Z,3.30
2022-08-25T16:36:57.257Z,3.60
2022-08-25T16:39:01.598Z,3.30
2022-08-25T16:41:10.004Z,3.50
2022-08-25T16:43:11.723Z,3.17
2022-08-25T16:45:13.648Z,3.47
2022-08-25T16:47:17.822Z,3.50
2022-08-25T16:49:24.493Z,2.97
2022-08-25T16:51:29.549Z,3.20
2022-08-25T16:53:50.132Z,3.00
2022-08-25T16:58:01.297Z,3.55
2022-08-25T17:00:10.128Z,3.40
2022-08-25T17:02:12.002Z,3.38
2022-08-25T17:04:13.488Z,3.47
2022-08-25T17:06:15.114Z,3.08
2022-08-25T17:08:29.372Z,3.33
2022-08-25T17:10:34.607Z,3.58
2022-08-25T17:12:36.261Z,3.17
2022-08-25T17:14:37.597Z,3.17
2022-08-25T17:16:38.993Z,3.90
2022-08-25T17:18:42.783Z,3.22
2022-08-25T17:20:57.523Z,3.30
2022-08-25T17:22:58.891Z,3.13
2022-08-25T17:25:02.811Z,3.17
2022-08-25T17:27:08.778Z,2.97
2022-08-25T17:29:10.459Z,2.70
2022-08-25T17:31:13.676Z,2.78
2022-08-25T17:33:15.425Z,2.85
2022-08-25T17:35:16.768Z,2.97
2022-08-25T17:37:18.946Z,2.58
2022-08-25T17:39:22.272Z,2.92
2022-08-25T17:41:23.933Z,2.80
2022-08-25T17:43:25.818Z,2.70
2022-08-25T17:45:27.257Z,2.50
2022-08-25T17:47:28.720Z,2.67
2022-08-25T17:49:30.118Z,2.60
2022-08-25T17:51:32.061Z,2.55
2022-08-25T17:53:34.662Z,2.50
2022-08-25T17:55:36.119Z,2.70
2022-08-25T17:57:38.930Z,2.78
2022-08-25T17:59:40.447Z,2.88
2022-08-25T18:01:42.094Z,2.70
2022-08-25T18:03:44.136Z,2.80
2022-08-25T18:05:47.791Z,2.85
2022-08-25T18:07:49.673Z,2.95
2022-08-25T18:09:51.088Z,2.95
2022-08-25T18:11:52.575Z,2.78
2022-08-25T18:13:54.541Z,3.00
2022-08-25T18:15:55.990Z,3.00
2022-08-25T18:17:57.439Z,3.15
2022-08-25T18:19:58.829Z,3.17
2022-08-25T18:22:04.211Z,3.10
2022-08-25T18:24:06.307Z,3.15
2022-08-25T18:26:07.973Z,4.30
2022-08-25T18:28:14.119Z,4.18
2022-08-25T18:30:15.790Z,4.10
2022-08-25T18:32:19.543Z,4.00
2022-08-25T18:34:22.124Z,3.72
2022-08-25T18:36:23.499Z,4.30
2022-08-25T18:38:43.259Z,5.30
2022-08-25T18:42:46.309Z,3.80
2022-08-25T18:44:47.664Z,5.50
2022-08-25T18:46:49.071Z,4.95
2022-08-25T18:48:52.757Z,4.75
2022-08-25T18:50:54.973Z,4.28
2022-08-25T18:52:57.041Z,4.25
2022-08-25T18:54:59.287Z,4.15
2022-08-25T18:57:01.694Z,4.22
2022-08-25T18:59:04.234Z,3.72
2022-08-25T19:01:05.772Z,4.00
2022-08-25T19:03:08.874Z,3.95
2022-08-25T19:05:10.715Z,3.92
2022-08-25T19:07:13.982Z,3.78
2022-08-25T19:09:15.884Z,4.63
2022-08-25T19:11:17.555Z,4.68
2022-08-25T19:13:23.821Z,4.80
2022-08-25T19:15:25.823Z,4.97
2022-08-25T19:17:27.265Z,5.30
2022-08-25T19:19:28.948Z,5.10
2022-08-25T19:21:30.383Z,4.80
2022-08-25T19:23:32.546Z,5.40
2022-08-25T19:25:36.055Z,5.22
2022-08-25T19:27:43.733Z,5.40
2022-08-25T19:29:45.314Z,8.93
2022-08-25T19:31:47.792Z,9.23
2022-08-25T19:33:50.762Z,4.25
2022-08-25T19:35:52.137Z,4.22
2022-08-25T19:37:54.429Z,4.25
2022-08-25T19:39:55.945Z,4.22
2022-08-25T19:41:58.844Z,4.60
2022-08-25T19:44:02.754Z,4.40
2022-08-25T19:46:04.893Z,4.55
2022-08-25T19:48:07.246Z,4.80
2022-08-25T19:50:11.084Z,5.65
2022-08-25T19:52:24.793Z,7.97
2022-08-25T19:54:30.158Z,13.63
2022-08-25T19:56:33.649Z,10.63
2022-08-25T19:58:35.160Z,11.88
2022-08-25T20:00:39.914Z,15.38
2022-08-25T20:02:41.867Z,17.23
2022-08-25T20:04:47.952Z,5.45
2022-08-25T20:06:51.929Z,3.97
2022-08-25T20:08:58.813Z,4.50
2022-08-25T20:11:00.642Z,4.10
2022-08-25T20:13:02.117Z,4.20
2022-08-25T20:15:04.344Z,4.35
2022-08-25T20:17:13.166Z,6.82
2022-08-25T20:19:24.819Z,4.63
2022-08-25T20:21:26.239Z,5.55
2022-08-25T20:23:46.277Z,4.70
2022-08-25T20:25:47.660Z,4.25
2022-08-25T20:27:53.553Z,4.75
2022-08-25T20:29:54.910Z,4.40
2022-08-25T20:31:56.259Z,4.72
2022-08-25T20:34:00.983Z,4.65
2022-08-25T20:36:07.714Z,4.57
2022-08-25T20:38:09.259Z,4.50
2022-08-25T20:40:12.986Z,4.60
2022-08-25T20:42:14.329Z,4.07
2022-08-25T20:44:17.923Z,4.25
2022-08-25T20:46:19.479Z,4.53
2022-08-25T20:48:20.946Z,4.40
2022-08-25T20:50:24.060Z,4.35
2022-08-25T20:52:26.012Z,4.35
2022-08-25T20:54:27.792Z,4.90
2022-08-25T20:56:32.490Z,4.28
2022-08-25T20:58:36.730Z,4.35
2022-08-25T21:00:38.329Z,4.90
2022-08-25T21:02:40.623Z,5.10
2022-08-25T21:04:49.050Z,4.28
2022-08-25T21:06:51.880Z,4.68
2022-08-25T21:08:53.679Z,4.47
2022-08-25T21:10:55.792Z,4.70
2022-08-25T21:12:57.168Z,4.55
2022-08-25T21:14:58.601Z,4.22
2022-08-25T21:17:00.268Z,4.50
2022-08-25T21:19:01.721Z,4.70
2022-08-25T21:21:11.080Z,4.90
2022-08-25T21:23:12.489Z,4.80
2022-08-25T21:25:14.419Z,4.95
2022-08-25T21:27:15.840Z,4.70
2022-08-25T21:29:18.203Z,4.72
2022-08-25T21:31:20.623Z,4.82
2022-08-25T21:33:22.218Z,4.10
2022-08-25T21:35:27.611Z,4.32
2022-08-25T21:37:30.728Z,3.90
2022-08-25T21:39:33.003Z,3.80
2022-08-25T21:41:35.531Z,4.40
2022-08-25T21:43:38.637Z,3.75
2022-08-25T21:45:46.626Z,4.80
2022-08-25T21:47:48.190Z,4.60
2022-08-25T21:49:50.242Z,5.18
2022-08-25T21:52:00.439Z,3.95
2022-08-25T21:54:09.878Z,4.13
2022-08-25T21:56:16.044Z,4.43
2022-08-25T21:58:18.399Z,4.10
2022-08-25T22:00:21.313Z,4.25
2022-08-25T22:02:23.529Z,4.40
2022-08-25T22:04:25.115Z,4.13
2022-08-25T22:06:26.569Z,4.18
2022-08-25T22:08:31.292Z,4.53
2022-08-25T22:10:32.594Z,4.22
2022-08-25T22:12:34.142Z,4.20
2022-08-25T22:14:36.126Z,4.35
2022-08-25T22:16:38.447Z,4.50
2022-08-25T22:18:40.230Z,3.78
2022-08-25T22:20:43.758Z,3.88
2022-08-25T22:22:45.235Z,4.13
2022-08-25T22:24:46.619Z,4.35
2022-08-25T22:26:48.568Z,4.40
2022-08-25T22:28:51.187Z,4.28
2022-08-25T22:33:09.036Z,4.53
2022-08-25T22:35:10.588Z,4.28
2022-08-25T22:37:12.239Z,4.80
2022-08-25T22:39:15.280Z,4.78
2022-08-25T22:41:19.021Z,4.63
2022-08-25T22:43:23.487Z,4.90
2022-08-25T22:45:24.947Z,4.82
2022-08-25T22:47:26.336Z,4.57
2022-08-25T22:49:28.401Z,4.85
2022-08-25T22:51:32.505Z,4.68
2022-08-25T22:53:35.985Z,4.85
2022-08-25T22:55:41.468Z,5.00
2022-08-25T22:57:43.539Z,4.70
2022-08-25T22:59:46.252Z,4.90
2022-08-25T23:01:47.617Z,4.82
2022-08-25T23:03:48.987Z,4.93
2022-08-25T23:05:50.549Z,5.18
2022-08-25T23:07:51.942Z,5.03
2022-08-25T23:09:53.402Z,4.78
2022-08-25T23:11:55.112Z,5.07
2022-08-25T23:13:57.493Z,4.75
2022-08-25T23:15:58.835Z,5.10
2022-08-25T23:18:00.192Z,4.50
2022-08-25T23:20:21.535Z,5.05
2022-08-25T23:22:22.846Z,4.90
2022-08-25T23:24:26.850Z,4.78
2022-08-25T23:26:32.625Z,5.15
2022-08-25T23:28:33.926Z,5.05
2022-08-25T23:30:35.803Z,4.93
2022-08-25T23:32:40.283Z,4.70
2022-08-25T23:34:42.884Z,5.18
2022-08-25T23:36:47.741Z,5.03
2022-08-25T23:38:51.668Z,4.40
2022-08-25T23:40:53.290Z,5.32
2022-08-25T23:42:55.735Z,4.88
2022-08-25T23:44:57.139Z,4.63
2022-08-25T23:46:59.125Z,4.70
2022-08-25T23:49:00.403Z,4.88
2022-08-25T23:51:01.766Z,4.88
2022-08-25T23:53:03.698Z,4.80
2022-08-25T23:55:05.348Z,4.65
2022-08-25T23:57:07.048Z,5.20
2022-08-25T23:59:10.648Z,4.70
